Time;durP1;ratioP1;P1;durP2;ratioP2;P2;SDS_P1;SDS_P2;PMS_P1;PMS_P2;Temp;Humidity;BMP_temperature;BMP_pressure;BME280_temperature;BME280_humidity;BME280_pressure;Samples;Min_cycle;Max_cycle;Signal;HPM_P1;HPM_P2
2022/12/26 00:01:14;;;;;;;0.60;0.60;;;;;;;;;;5056242;28;20179;-76
2022/12/26 00:03:40;;;;;;;0.70;0.70;;;;;;;;;;5056640;28;20613;-78
2022/12/26 00:06:11;;;;;;;0.50;0.50;;;;;;;;;;5057137;28;20201;-79
2022/12/26 00:08:37;;;;;;;0.60;0.60;;;;;;;;;;5055888;28;20183;-77
2022/12/26 00:11:03;;;;;;;0.70;0.70;;;;;;;;;;5056251;28;20262;-79
2022/12/26 00:13:29;;;;;;;0.70;0.70;;;;;;;;;;5054464;28;20206;-77
2022/12/26 00:15:55;;;;;;;0.60;0.60;;;;;;;;;;5054488;28;20301;-78
2022/12/26 00:18:20;;;;;;;0.70;0.70;;;;;;;;;;5055259;28;20267;-77
2022/12/26 00:20:46;;;;;;;0.70;0.70;;;;;;;;;;5055651;28;20187;-77
2022/12/26 00:23:12;;;;;;;0.63;0.63;;;;;;;;;;5056075;28;20668;-77
2022/12/26 00:25:38;;;;;;;0.60;0.60;;;;;;;;;;5056648;28;20183;-78
2022/12/26 00:28:04;;;;;;;0.60;0.60;;;;;;;;;;5057517;28;20167;-78
2022/12/26 00:30:30;;;;;;;0.70;0.70;;;;;;;;;;5062606;28;20183;-77
2022/12/26 00:32:56;;;;;;;0.60;0.60;;;;;;;;;;5064353;28;20197;-77
2022/12/26 00:35:22;;;;;;;0.60;0.60;;;;;;;;;;5061099;28;20242;-79
2022/12/26 00:37:48;;;;;;;0.50;0.50;;;;;;;;;;5056219;28;20198;-78
2022/12/26 00:40:14;;;;;;;0.60;0.60;;;;;;;;;;5055989;28;20175;-78
2022/12/26 00:42:40;;;;;;;0.60;0.60;;;;;;;;;;5056246;28;20171;-79
2022/12/26 00:45:06;;;;;;;0.50;0.50;;;;;;;;;;5055351;28;20277;-77
2022/12/26 00:47:32;;;;;;;0.60;0.60;;;;;;;;;;5055704;28;20183;-78
2022/12/26 00:49:58;;;;;;;0.63;0.63;;;;;;;;;;5055576;28;20179;-78
2022/12/26 00:52:24;;;;;;;0.50;0.50;;;;;;;;;;5054844;28;20186;-78
2022/12/26 00:54:50;;;;;;;0.50;0.50;;;;;;;;;;5055605;28;20222;-77
2022/12/26 00:57:16;;;;;;;0.60;0.60;;;;;;;;;;5055124;28;20175;-78
2022/12/26 00:59:42;;;;;;;0.53;0.53;;;;;;;;;;5056262;28;20182;-78
2022/12/26 01:02:36;;;;;;;0.60;0.60;;;;;;;;;;5055177;28;20179;-78
2022/12/26 01:04:54;;;;;;;0.50;0.50;;;;;;;;;;5053734;28;20209;-78
2022/12/26 01:07:20;;;;;;;0.53;0.53;;;;;;;;;;5055330;28;20179;-79
2022/12/26 01:09:46;;;;;;;0.57;0.57;;;;;;;;;;5056784;28;20174;-79
2022/12/26 01:12:12;;;;;;;0.70;0.70;;;;;;;;;;5055229;28;20179;-79
2022/12/26 01:14:37;;;;;;;0.50;0.50;;;;;;;;;;5055669;28;20317;-78
2022/12/26 01:17:03;;;;;;;0.50;0.50;;;;;;;;;;5055207;28;20735;-79
2022/12/26 01:19:29;;;;;;;0.70;0.70;;;;;;;;;;5055540;28;20562;-79
2022/12/26 01:21:55;;;;;;;0.60;0.60;;;;;;;;;;5056944;28;20179;-77
2022/12/26 01:24:21;;;;;;;0.70;0.70;;;;;;;;;;5071781;28;20218;-77
2022/12/26 01:26:47;;;;;;;0.50;0.50;;;;;;;;;;5055353;28;20171;-77
2022/12/26 01:29:13;;;;;;;0.67;0.67;;;;;;;;;;5053735;28;20217;-78
2022/12/26 01:31:39;;;;;;;0.70;0.70;;;;;;;;;;5053657;28;20179;-76
2022/12/26 01:34:05;;;;;;;0.70;0.70;;;;;;;;;;5053748;28;20218;-77
2022/12/26 01:36:31;;;;;;;0.60;0.60;;;;;;;;;;5054678;28;20208;-78
2022/12/26 01:38:57;;;;;;;0.80;0.80;;;;;;;;;;5054116;28;20276;-78
2022/12/26 01:41:23;;;;;;;0.60;0.60;;;;;;;;;;5054488;28;20623;-78
2022/12/26 01:43:49;;;;;;;0.50;0.50;;;;;;;;;;5053664;28;20191;-77
2022/12/26 01:46:16;;;;;;;0.60;0.60;;;;;;;;;;5054439;28;20720;-77
2022/12/26 01:48:42;;;;;;;0.60;0.60;;;;;;;;;;5054308;28;20187;-78
2022/12/26 01:51:08;;;;;;;0.60;0.60;;;;;;;;;;5054095;28;20259;-78
2022/12/26 01:53:40;;;;;;;0.60;0.60;;;;;;;;;;5053148;28;20203;-78
2022/12/26 01:56:06;;;;;;;0.70;0.70;;;;;;;;;;5058308;28;20215;-77
2022/12/26 01:58:34;;;;;;;0.60;0.60;;;;;;;;;;5060446;28;20187;-78
2022/12/26 02:01:02;;;;;;;0.60;0.60;;;;;;;;;;5058212;28;20183;-77
2022/12/26 02:06:13;;;;;;;0.60;0.60;;;;;;;;;;5053044;28;20239;-77
2022/12/26 02:08:40;;;;;;;0.70;0.70;;;;;;;;;;5053661;28;20178;-78
2022/12/26 02:11:10;;;;;;;0.70;0.70;;;;;;;;;;5053462;28;20183;-78
2022/12/26 02:13:36;;;;;;;0.50;0.50;;;;;;;;;;5052277;28;20722;-77
2022/12/26 02:16:03;;;;;;;0.60;0.60;;;;;;;;;;5053161;28;20330;-77
2022/12/26 02:18:29;;;;;;;0.50;0.50;;;;;;;;;;5052945;28;20179;-78
2022/12/26 02:21:02;;;;;;;0.60;0.60;;;;;;;;;;5052935;28;20186;-77
2022/12/26 02:23:42;;;;;;;0.70;0.70;;;;;;;;;;5053383;28;20205;-77
2022/12/26 02:26:08;;;;;;;0.60;0.60;;;;;;;;;;5053396;28;20167;-77
2022/12/26 02:28:43;;;;;;;0.60;0.60;;;;;;;;;;5054151;28;20233;-78
2022/12/26 02:31:25;;;;;;;0.60;0.60;;;;;;;;;;5053698;28;20683;-78
2022/12/26 02:34:09;;;;;;;0.70;0.70;;;;;;;;;;5053623;28;20696;-77
2022/12/26 02:36:40;;;;;;;0.80;0.80;;;;;;;;;;5054498;28;20179;-78
2022/12/26 02:39:27;;;;;;;0.63;0.63;;;;;;;;;;5054303;28;20197;-78
2022/12/26 02:42:01;;;;;;;0.77;0.77;;;;;;;;;;5023023;28;20183;-78
2022/12/26 02:47:46;;;;;;;0.60;0.60;;;;;;;;;;5054588;28;20597;-77
2022/12/26 03:13:12;;;;;;;0.70;0.70;;;;;;;;;;5034501;28;20283;-78
2022/12/26 03:18:32;;;;;;;0.60;0.60;;;;;;;;;;5046071;28;20225;-77
2022/12/26 03:20:59;;;;;;;0.70;0.70;;;;;;;;;;5057280;28;20178;-78
2022/12/26 03:23:25;;;;;;;0.60;0.60;;;;;;;;;;5057862;28;20222;-77
2022/12/26 03:28:40;;;;;;;0.70;0.70;;;;;;;;;;5057760;28;20186;-77
2022/12/26 03:31:07;;;;;;;0.60;0.60;;;;;;;;;;5057013;28;20179;-77
2022/12/26 03:36:32;;;;;;;0.50;0.50;;;;;;;;;;5057333;28;20619;-77
2022/12/26 03:39:16;;;;;;;0.60;0.60;;;;;;;;;;5056555;28;20194;-76
2022/12/26 04:44:09;;;;;;;0.50;0.50;;;;;;;;;;5063070;28;20253;-77
2022/12/26 04:46:37;;;;;;;0.70;0.70;;;;;;;;;;5063142;28;20171;-78
2022/12/26 04:51:49;;;;;;;0.63;0.63;;;;;;;;;;5065447;28;20182;-77
2022/12/26 04:54:15;;;;;;;0.70;0.70;;;;;;;;;;5064346;28;20199;-76
2022/12/26 04:56:41;;;;;;;0.70;0.70;;;;;;;;;;5067041;28;20217;-77
2022/12/26 04:59:07;;;;;;;0.70;0.70;;;;;;;;;;5066812;28;20269;-77
2022/12/26 05:09:49;;;;;;;0.60;0.60;;;;;;;;;;5068258;28;20202;-77
2022/12/26 05:12:15;;;;;;;0.60;0.60;;;;;;;;;;5064856;28;20179;-77
2022/12/26 05:14:41;;;;;;;0.67;0.67;;;;;;;;;;5056663;28;20567;-78
2022/12/26 05:30:55;;;;;;;0.60;0.60;;;;;;;;;;5054504;28;20190;-77
2022/12/26 05:36:05;;;;;;;0.60;0.60;;;;;;;;;;5055570;28;20265;-78
2022/12/26 05:38:31;;;;;;;0.60;0.60;;;;;;;;;;5053828;28;20191;-78
2022/12/26 05:40:57;;;;;;;0.70;0.70;;;;;;;;;;5106866;22;20317;-75
2022/12/26 05:43:23;;;;;;;0.67;0.67;;;;;;;;;;5073240;28;20201;-75
2022/12/26 05:45:49;;;;;;;0.60;0.60;;;;;;;;;;5073753;28;20193;-75
2022/12/26 05:48:15;;;;;;;0.63;0.63;;;;;;;;;;5074089;28;20284;-75
2022/12/26 05:50:41;;;;;;;0.70;0.70;;;;;;;;;;5073638;28;20178;-74
2022/12/26 05:53:07;;;;;;;0.70;0.70;;;;;;;;;;5073827;28;20198;-75
2022/12/26 05:55:33;;;;;;;0.60;0.60;;;;;;;;;;5073199;28;20272;-74
2022/12/26 05:58:00;;;;;;;0.60;0.60;;;;;;;;;;5072933;28;20328;-73
2022/12/26 06:00:26;;;;;;;0.60;0.60;;;;;;;;;;5072821;28;20265;-74
2022/12/26 06:02:52;;;;;;;0.57;0.57;;;;;;;;;;5071860;28;20210;-74
2022/12/26 06:05:18;;;;;;;0.50;0.50;;;;;;;;;;5071377;28;20201;-74
2022/12/26 06:07:44;;;;;;;0.60;0.60;;;;;;;;;;5071198;28;20228;-74
2022/12/26 06:10:10;;;;;;;0.70;0.70;;;;;;;;;;5071389;28;20193;-74
2022/12/26 06:12:36;;;;;;;0.60;0.60;;;;;;;;;;5070559;28;20194;-75
2022/12/26 06:15:02;;;;;;;0.70;0.70;;;;;;;;;;5071086;28;20297;-74
2022/12/26 06:17:28;;;;;;;0.63;0.63;;;;;;;;;;5071244;28;20174;-74
2022/12/26 06:19:54;;;;;;;0.60;0.60;;;;;;;;;;5071553;28;20223;-74
2022/12/26 06:22:20;;;;;;;0.50;0.50;;;;;;;;;;5070572;28;20170;-74
2022/12/26 06:24:46;;;;;;;0.53;0.53;;;;;;;;;;5071262;28;20194;-74
2022/12/26 06:27:12;;;;;;;0.70;0.70;;;;;;;;;;5071303;28;20178;-74
2022/12/26 06:29:38;;;;;;;0.50;0.50;;;;;;;;;;5069982;28;20178;-74
2022/12/26 06:32:04;;;;;;;0.60;0.60;;;;;;;;;;5070086;28;20174;-75
2022/12/26 06:34:30;;;;;;;0.60;0.60;;;;;;;;;;5070531;28;20206;-75
2022/12/26 06:36:56;;;;;;;0.60;0.60;;;;;;;;;;5070507;28;20181;-74
2022/12/26 06:39:23;;;;;;;0.60;0.60;;;;;;;;;;5070463;28;20547;-74
2022/12/26 06:41:49;;;;;;;0.60;0.60;;;;;;;;;;5070588;28;20273;-74
2022/12/26 06:44:15;;;;;;;0.60;0.60;;;;;;;;;;5069571;28;20659;-74
2022/12/26 06:46:41;;;;;;;0.50;0.50;;;;;;;;;;5070087;28;20174;-74
2022/12/26 06:49:07;;;;;;;0.60;0.60;;;;;;;;;;5070584;28;20288;-74
2022/12/26 06:51:34;;;;;;;0.50;0.50;;;;;;;;;;5070239;28;20360;-75
2022/12/26 06:54:03;;;;;;;0.60;0.60;;;;;;;;;;5069949;28;20198;-75
2022/12/26 06:56:29;;;;;;;0.53;0.53;;;;;;;;;;5070469;28;20194;-74
2022/12/26 06:58:56;;;;;;;0.53;0.53;;;;;;;;;;5070525;28;20212;-74
2022/12/26 07:01:22;;;;;;;0.60;0.60;;;;;;;;;;5070410;28;20244;-74
2022/12/26 07:03:48;;;;;;;0.70;0.70;;;;;;;;;;5069820;28;20364;-73
2022/12/26 07:06:43;;;;;;;0.70;0.70;;;;;;;;;;5070160;28;20170;-73
2022/12/26 07:09:13;;;;;;;0.70;0.70;;;;;;;;;;5061448;28;20225;-73
2022/12/26 07:11:39;;;;;;;0.50;0.50;;;;;;;;;;5070384;28;20182;-73
2022/12/26 07:14:06;;;;;;;0.57;0.57;;;;;;;;;;5065594;28;20198;-73
2022/12/26 07:16:34;;;;;;;0.53;0.53;;;;;;;;;;5065262;28;20537;-73
2022/12/26 07:19:00;;;;;;;0.60;0.60;;;;;;;;;;5062641;28;20182;-74
2022/12/26 07:21:26;;;;;;;0.60;0.60;;;;;;;;;;5067806;28;20334;-75
2022/12/26 07:23:53;;;;;;;0.40;0.40;;;;;;;;;;5066911;28;20922;-75
2022/12/26 07:26:19;;;;;;;0.60;0.60;;;;;;;;;;5067517;28;20190;-77
2022/12/26 07:28:45;;;;;;;0.57;0.57;;;;;;;;;;5067975;28;20281;-76
2022/12/26 07:31:18;;;;;;;0.60;0.60;;;;;;;;;;5067855;28;20273;-76
2022/12/26 07:33:51;;;;;;;0.67;0.67;;;;;;;;;;5067546;28;20535;-75
2022/12/26 07:36:17;;;;;;;0.50;0.50;;;;;;;;;;5067729;28;20214;-77
2022/12/26 07:38:43;;;;;;;0.50;0.50;;;;;;;;;;5068409;28;20438;-75
2022/12/26 07:43:53;;;;;;;0.60;0.60;;;;;;;;;;5068476;28;20726;-78
2022/12/26 07:46:19;;;;;;;0.73;0.73;;;;;;;;;;5055018;28;20263;-77
2022/12/26 07:48:45;;;;;;;0.63;0.63;;;;;;;;;;5064690;28;20702;-76
2022/12/26 07:51:11;;;;;;;0.50;0.50;;;;;;;;;;5055759;28;20175;-76
2022/12/26 07:53:37;;;;;;;0.60;0.60;;;;;;;;;;5050337;28;20202;-76
2022/12/26 07:56:03;;;;;;;0.60;0.60;;;;;;;;;;5051122;28;20265;-76
2022/12/26 07:58:29;;;;;;;0.60;0.60;;;;;;;;;;5050787;28;20194;-77
2022/12/26 08:00:55;;;;;;;0.50;0.50;;;;;;;;;;5066317;28;20612;-78
2022/12/26 08:03:21;;;;;;;0.60;0.60;;;;;;;;;;5072448;28;20663;-78
2022/12/26 08:05:48;;;;;;;0.70;0.70;;;;;;;;;;5071867;28;20182;-76
2022/12/26 08:08:14;;;;;;;0.50;0.50;;;;;;;;;;5072705;28;20867;-75
2022/12/26 08:10:40;;;;;;;0.67;0.67;;;;;;;;;;5073055;28;20269;-75
2022/12/26 08:13:06;;;;;;;0.50;0.50;;;;;;;;;;5072712;28;20731;-76
2022/12/26 08:15:32;;;;;;;0.63;0.63;;;;;;;;;;5073110;28;20305;-78
2022/12/26 08:17:57;;;;;;;0.50;0.50;;;;;;;;;;5072686;28;20166;-75
2022/12/26 08:20:24;;;;;;;0.60;0.60;;;;;;;;;;5072984;28;20231;-76
2022/12/26 08:22:49;;;;;;;0.60;0.60;;;;;;;;;;5073029;28;20179;-76
2022/12/26 08:25:15;;;;;;;0.50;0.50;;;;;;;;;;5072582;28;20162;-76
2022/12/26 08:27:41;;;;;;;0.70;0.70;;;;;;;;;;5072744;28;20252;-76
2022/12/26 08:30:08;;;;;;;0.63;0.63;;;;;;;;;;5072801;28;20170;-76
2022/12/26 08:32:34;;;;;;;0.50;0.50;;;;;;;;;;5072398;28;20269;-76
2022/12/26 08:35:00;;;;;;;0.70;0.70;;;;;;;;;;5072639;28;20284;-76
2022/12/26 08:37:26;;;;;;;0.60;0.60;;;;;;;;;;5072651;28;20243;-76
2022/12/26 08:39:52;;;;;;;0.70;0.70;;;;;;;;;;5073014;28;20194;-76
2022/12/26 08:42:18;;;;;;;0.70;0.70;;;;;;;;;;5072901;28;20186;-76
2022/12/26 08:44:44;;;;;;;0.60;0.60;;;;;;;;;;5072679;28;20196;-76
2022/12/26 08:47:10;;;;;;;0.60;0.60;;;;;;;;;;5072722;28;20182;-77
2022/12/26 08:49:36;;;;;;;0.70;0.70;;;;;;;;;;5072617;28;20632;-76
2022/12/26 08:52:02;;;;;;;0.70;0.70;;;;;;;;;;5071548;28;20546;-75
2022/12/26 08:54:28;;;;;;;0.67;0.67;;;;;;;;;;5071972;28;20308;-78
2022/12/26 08:56:54;;;;;;;0.70;0.70;;;;;;;;;;5072733;28;20203;-76
2022/12/26 08:59:20;;;;;;;0.70;0.70;;;;;;;;;;5072493;28;20183;-76
2022/12/26 09:01:46;;;;;;;0.70;0.70;;;;;;;;;;5072618;28;20273;-76
2022/12/26 09:04:12;;;;;;;0.70;0.70;;;;;;;;;;5073534;28;20268;-75
2022/12/26 09:06:39;;;;;;;0.70;0.70;;;;;;;;;;5073835;28;20185;-75
2022/12/26 09:09:06;;;;;;;0.60;0.60;;;;;;;;;;5072074;28;20232;-76
2022/12/26 09:11:32;;;;;;;0.60;0.60;;;;;;;;;;5072105;28;20263;-76
2022/12/26 09:13:59;;;;;;;0.60;0.60;;;;;;;;;;5071526;28;20194;-77
2022/12/26 09:16:27;;;;;;;0.60;0.60;;;;;;;;;;5071755;28;20216;-76
2022/12/26 09:18:54;;;;;;;0.50;0.50;;;;;;;;;;5071853;28;20174;-76
2022/12/26 09:21:20;;;;;;;0.60;0.60;;;;;;;;;;5071823;28;20265;-77
2022/12/26 09:23:46;;;;;;;0.70;0.70;;;;;;;;;;5071516;28;20228;-76
2022/12/26 09:26:19;;;;;;;0.50;0.50;;;;;;;;;;5071865;28;20183;-76
2022/12/26 09:28:45;;;;;;;0.60;0.60;;;;;;;;;;5071802;28;20181;-76
2022/12/26 09:31:13;;;;;;;0.60;0.60;;;;;;;;;;5071923;28;20641;-76
2022/12/26 09:33:39;;;;;;;0.57;0.57;;;;;;;;;;5071305;28;20206;-76
2022/12/26 09:36:07;;;;;;;0.60;0.60;;;;;;;;;;5072028;28;20251;-77
2022/12/26 09:38:33;;;;;;;0.60;0.60;;;;;;;;;;5071999;28;20202;-76
2022/12/26 09:41:07;;;;;;;0.60;0.60;;;;;;;;;;5071727;28;20190;-77
2022/12/26 09:43:42;;;;;;;0.70;0.70;;;;;;;;;;5056827;28;20206;-77
2022/12/26 09:46:16;;;;;;;0.63;0.63;;;;;;;;;;5062199;28;20186;-76
2022/12/26 09:48:51;;;;;;;0.60;0.60;;;;;;;;;;5055979;28;20178;-77
2022/12/26 09:51:17;;;;;;;0.67;0.67;;;;;;;;;;5067421;28;20175;-76
2022/12/26 09:53:46;;;;;;;0.60;0.60;;;;;;;;;;5056715;28;20194;-76
2022/12/26 09:56:16;;;;;;;0.50;0.50;;;;;;;;;;5060921;28;20693;-76
2022/12/26 09:58:52;;;;;;;0.60;0.60;;;;;;;;;;5065554;28;20174;-77
2022/12/26 10:01:20;;;;;;;0.50;0.50;;;;;;;;;;5053854;28;20190;-76
2022/12/26 10:03:48;;;;;;;0.70;0.70;;;;;;;;;;5062987;28;20205;-77
2022/12/26 10:06:16;;;;;;;0.70;0.70;;;;;;;;;;5061504;28;20189;-78
2022/12/26 10:09:00;;;;;;;0.63;0.63;;;;;;;;;;5055867;28;20218;-77
2022/12/26 10:12:05;;;;;;;0.60;0.60;;;;;;;;;;5054901;28;20171;-78
2022/12/26 10:14:40;;;;;;;0.60;0.60;;;;;;;;;;4988609;28;20316;-78
2022/12/26 10:17:24;;;;;;;0.73;0.73;;;;;;;;;;4988937;28;20181;-78
2022/12/26 10:19:56;;;;;;;0.70;0.70;;;;;;;;;;5036765;28;20616;-79
2022/12/26 10:22:37;;;;;;;0.60;0.60;;;;;;;;;;5057923;28;20605;-77
2022/12/26 10:25:10;;;;;;;0.60;0.60;;;;;;;;;;5066975;28;20178;-76
2022/12/26 10:27:39;;;;;;;0.63;0.63;;;;;;;;;;5056009;28;20365;-76
2022/12/26 10:30:07;;;;;;;0.50;0.50;;;;;;;;;;5060976;28;20203;-79
2022/12/26 10:32:39;;;;;;;0.60;0.60;;;;;;;;;;5064335;28;20186;-77
2022/12/26 10:35:29;;;;;;;0.70;0.70;;;;;;;;;;5054815;28;20268;-79
2022/12/26 10:37:57;;;;;;;0.67;0.67;;;;;;;;;;5062720;28;20202;-78
2022/12/26 10:40:35;;;;;;;0.60;0.60;;;;;;;;;;5063475;28;20194;-78
2022/12/26 10:43:10;;;;;;;0.80;0.80;;;;;;;;;;5054538;28;20244;-78
2022/12/26 10:45:42;;;;;;;0.60;0.60;;;;;;;;;;5064948;28;20224;-78
2022/12/26 10:48:08;;;;;;;0.60;0.60;;;;;;;;;;5060301;28;20189;-78
2022/12/26 10:50:34;;;;;;;0.70;0.70;;;;;;;;;;5056577;28;20183;-77
2022/12/26 10:53:02;;;;;;;0.73;0.73;;;;;;;;;;5066083;28;20199;-77
2022/12/26 10:55:31;;;;;;;0.60;0.60;;;;;;;;;;5054957;28;20207;-78
2022/12/26 10:57:58;;;;;;;0.60;0.60;;;;;;;;;;5062754;28;20206;-78
2022/12/26 11:00:25;;;;;;;0.50;0.50;;;;;;;;;;5068526;28;20194;-77
2022/12/26 11:03:02;;;;;;;0.70;0.70;;;;;;;;;;5053257;28;20270;-78
2022/12/26 11:05:28;;;;;;;0.70;0.70;;;;;;;;;;5054947;28;20201;-77
2022/12/26 11:07:56;;;;;;;0.70;0.70;;;;;;;;;;5061299;28;20298;-77
2022/12/26 11:10:27;;;;;;;0.57;0.57;;;;;;;;;;5062165;28;20171;-77
2022/12/26 11:12:59;;;;;;;0.60;0.60;;;;;;;;;;5053194;28;20183;-77
2022/12/26 11:15:25;;;;;;;0.70;0.70;;;;;;;;;;5054421;28;20202;-77
2022/12/26 11:17:51;;;;;;;0.60;0.60;;;;;;;;;;5065956;28;20244;-78
2022/12/26 11:20:20;;;;;;;0.57;0.57;;;;;;;;;;5065941;28;20178;-77
2022/12/26 11:22:46;;;;;;;0.60;0.60;;;;;;;;;;5058106;28;20182;-78
2022/12/26 11:25:15;;;;;;;0.60;0.60;;;;;;;;;;5070410;28;20186;-77
2022/12/26 11:27:42;;;;;;;0.70;0.70;;;;;;;;;;5060112;28;20662;-78
2022/12/26 11:30:28;;;;;;;0.70;0.70;;;;;;;;;;5063160;28;20644;-76
2022/12/26 11:33:05;;;;;;;0.60;0.60;;;;;;;;;;5069231;28;20183;-78
2022/12/26 11:35:36;;;;;;;0.60;0.60;;;;;;;;;;5058702;28;20206;-76
2022/12/26 11:38:03;;;;;;;0.60;0.60;;;;;;;;;;5063747;28;20171;-78
2022/12/26 11:41:30;;;;;;;0.60;0.60;;;;;;;;;;5066484;28;20209;-76
2022/12/26 11:43:33;;;;;;;0.70;0.70;;;;;;;;;;5057990;28;20232;-77
2022/12/26 11:45:59;;;;;;;0.60;0.60;;;;;;;;;;5064188;28;20266;-78
2022/12/26 11:48:26;;;;;;;0.60;0.60;;;;;;;;;;5066035;28;20178;-76
2022/12/26 11:50:52;;;;;;;0.60;0.60;;;;;;;;;;5057163;28;20178;-77
2022/12/26 11:53:19;;;;;;;0.63;0.63;;;;;;;;;;5069111;28;20505;-79
2022/12/26 11:55:56;;;;;;;0.63;0.63;;;;;;;;;;5059908;28;20202;-76
2022/12/26 11:58:24;;;;;;;0.60;0.60;;;;;;;;;;5061011;28;20182;-78
2022/12/26 12:00:50;;;;;;;0.60;0.60;;;;;;;;;;5069128;28;20178;-76
2022/12/26 12:03:17;;;;;;;0.50;0.50;;;;;;;;;;5055913;28;20213;-76
2022/12/26 12:05:43;;;;;;;0.60;0.60;;;;;;;;;;5066361;28;20270;-77
2022/12/26 12:08:15;;;;;;;0.70;0.70;;;;;;;;;;5063246;28;20309;-76
2022/12/26 12:10:47;;;;;;;0.60;0.60;;;;;;;;;;5058383;28;20186;-77
2022/12/26 12:13:20;;;;;;;0.60;0.60;;;;;;;;;;5068760;28;20194;-77
2022/12/26 12:15:49;;;;;;;0.50;0.50;;;;;;;;;;5060039;28;20305;-79
2022/12/26 12:18:34;;;;;;;0.63;0.63;;;;;;;;;;5061400;28;20610;-76
2022/12/26 12:21:11;;;;;;;0.70;0.70;;;;;;;;;;5069281;28;20208;-78
2022/12/26 12:23:59;;;;;;;0.70;0.70;;;;;;;;;;5058734;28;20232;-77
2022/12/26 12:26:44;;;;;;;0.63;0.63;;;;;;;;;;5114584;22;20423;-76
2022/12/26 12:29:26;;;;;;;0.60;0.60;;;;;;;;;;5073714;28;20170;-77
2022/12/26 12:32:04;;;;;;;0.67;0.67;;;;;;;;;;5074746;28;20202;-78
2022/12/26 12:34:36;;;;;;;0.70;0.70;;;;;;;;;;5074597;28;20191;-77
2022/12/26 12:37:20;;;;;;;0.60;0.60;;;;;;;;;;5074946;28;20271;-77
2022/12/26 12:39:46;;;;;;;0.60;0.60;;;;;;;;;;5074395;28;20178;-76
2022/12/26 12:42:18;;;;;;;0.60;0.60;;;;;;;;;;5073113;28;20304;-76
2022/12/26 12:45:00;;;;;;;0.77;0.77;;;;;;;;;;5073170;28;20205;-75
2022/12/26 12:47:38;;;;;;;0.60;0.60;;;;;;;;;;5073433;28;20182;-75
2022/12/26 12:50:22;;;;;;;0.70;0.70;;;;;;;;;;5072632;28;20178;-75
2022/12/26 12:52:51;;;;;;;0.67;0.67;;;;;;;;;;5064537;28;20235;-75
2022/12/26 12:55:34;;;;;;;0.60;0.60;;;;;;;;;;5069651;28;20207;-77
2022/12/26 12:58:25;;;;;;;0.67;0.67;;;;;;;;;;5059800;28;20194;-76
2022/12/26 13:00:57;;;;;;;0.57;0.57;;;;;;;;;;5072254;28;20182;-77
2022/12/26 13:03:26;;;;;;;0.60;0.60;;;;;;;;;;5058042;28;20676;-76
2022/12/26 13:06:05;;;;;;;0.50;0.50;;;;;;;;;;5057770;28;20225;-76
2022/12/26 13:08:37;;;;;;;0.50;0.50;;;;;;;;;;5058703;28;20187;-76
2022/12/26 13:11:09;;;;;;;0.70;0.70;;;;;;;;;;5059201;28;20181;-75
2022/12/26 13:13:35;;;;;;;0.53;0.53;;;;;;;;;;5056172;28;20245;-75
2022/12/26 13:16:04;;;;;;;0.50;0.50;;;;;;;;;;5061786;28;20226;-75
2022/12/26 13:18:37;;;;;;;0.60;0.60;;;;;;;;;;5063275;28;20232;-76
2022/12/26 13:21:08;;;;;;;0.60;0.60;;;;;;;;;;5071706;28;20178;-76
2022/12/26 13:26:34;;;;;;;0.60;0.60;;;;;;;;;;5050790;28;20214;-76
2022/12/26 13:28:59;;;;;;;0.50;0.50;;;;;;;;;;5050260;28;20210;-76
2022/12/26 13:31:31;;;;;;;0.60;0.60;;;;;;;;;;5068238;28;20268;-76
2022/12/26 13:33:57;;;;;;;0.60;0.60;;;;;;;;;;5070929;28;20680;-77
2022/12/26 13:36:44;;;;;;;0.67;0.67;;;;;;;;;;5071398;28;20242;-76
2022/12/26 13:39:20;;;;;;;0.70;0.70;;;;;;;;;;5070634;28;20716;-76
2022/12/26 13:44:36;;;;;;;0.60;0.60;;;;;;;;;;5071790;28;20248;-76
2022/12/26 13:47:03;;;;;;;0.50;0.50;;;;;;;;;;5071571;28;20178;-75
2022/12/26 13:49:34;;;;;;;0.60;0.60;;;;;;;;;;5070734;28;20178;-76
2022/12/26 13:52:09;;;;;;;0.60;0.60;;;;;;;;;;5070394;28;20201;-75
2022/12/26 13:54:37;;;;;;;0.60;0.60;;;;;;;;;;5072362;28;20210;-76
2022/12/26 13:57:21;;;;;;;0.60;0.60;;;;;;;;;;5072600;28;20202;-77
2022/12/26 13:59:58;;;;;;;0.50;0.50;;;;;;;;;;5066017;28;20247;-75
2022/12/26 14:02:24;;;;;;;0.67;0.67;;;;;;;;;;5061103;28;20174;-76
2022/12/26 14:04:57;;;;;;;0.60;0.60;;;;;;;;;;5070526;28;20221;-75
2022/12/26 14:07:38;;;;;;;0.50;0.50;;;;;;;;;;5071551;28;20254;-75
2022/12/26 14:10:04;;;;;;;0.67;0.67;;;;;;;;;;5071328;28;20265;-76
2022/12/26 14:12:49;;;;;;;0.60;0.60;;;;;;;;;;5070691;28;20319;-75
2022/12/26 14:15:18;;;;;;;0.70;0.70;;;;;;;;;;5069815;28;20209;-76
2022/12/26 14:18:03;;;;;;;0.60;0.60;;;;;;;;;;5066540;28;20178;-78
2022/12/26 14:20:29;;;;;;;0.70;0.70;;;;;;;;;;5070504;28;20205;-76
2022/12/26 14:23:13;;;;;;;0.60;0.60;;;;;;;;;;5069930;28;20248;-76
2022/12/26 14:25:45;;;;;;;0.60;0.60;;;;;;;;;;5068078;28;20404;-77
2022/12/26 14:28:22;;;;;;;0.60;0.60;;;;;;;;;;5071103;28;20648;-76
2022/12/26 14:31:02;;;;;;;0.60;0.60;;;;;;;;;;5070778;28;20174;-76
2022/12/26 14:33:30;;;;;;;0.50;0.50;;;;;;;;;;5070286;28;20201;-76
2022/12/26 14:36:09;;;;;;;0.50;0.50;;;;;;;;;;5070942;28;20645;-76
2022/12/26 14:38:41;;;;;;;0.60;0.60;;;;;;;;;;5068692;28;20214;-74
2022/12/26 14:43:09;;;;;;;0.50;0.50;;;;;;;;;;5070554;28;20211;-74
2022/12/26 14:43:55;;;;;;;0.60;0.60;;;;;;;;;;5062070;28;20213;-76
2022/12/26 14:46:30;;;;;;;0.60;0.60;;;;;;;;;;5069893;28;20277;-76
2022/12/26 14:49:16;;;;;;;0.60;0.60;;;;;;;;;;5070437;28;20246;-76
2022/12/26 14:51:42;;;;;;;0.70;0.70;;;;;;;;;;5062515;28;20174;-76
2022/12/26 14:54:15;;;;;;;0.60;0.60;;;;;;;;;;5075594;28;20213;-76
2022/12/26 14:56:41;;;;;;;0.60;0.60;;;;;;;;;;5075843;28;20214;-76
2022/12/26 14:59:26;;;;;;;0.60;0.60;;;;;;;;;;5076172;28;20182;-76
2022/12/26 15:02:02;;;;;;;0.60;0.60;;;;;;;;;;5064480;28;20206;-76
2022/12/26 15:04:43;;;;;;;0.70;0.70;;;;;;;;;;5074082;28;20206;-76
2022/12/26 15:07:28;;;;;;;0.67;0.67;;;;;;;;;;5075743;28;20183;-77
2022/12/26 15:10:12;;;;;;;0.70;0.70;;;;;;;;;;5080459;28;20182;-77
2022/12/26 15:12:47;;;;;;;0.60;0.60;;;;;;;;;;5076999;28;20205;-77
2022/12/26 15:15:22;;;;;;;0.73;0.73;;;;;;;;;;5077415;28;20209;-75
2022/12/26 15:18:03;;;;;;;0.60;0.60;;;;;;;;;;5063605;28;20627;-76
2022/12/26 15:20:50;;;;;;;0.70;0.70;;;;;;;;;;5077698;28;20220;-77
2022/12/26 15:23:35;;;;;;;0.60;0.60;;;;;;;;;;5076706;28;20213;-78
2022/12/26 15:26:04;;;;;;;0.53;0.53;;;;;;;;;;5076202;28;20309;-77
2022/12/26 15:28:32;;;;;;;0.60;0.60;;;;;;;;;;5075089;28;20182;-77
2022/12/26 15:31:07;;;;;;;0.50;0.50;;;;;;;;;;5074613;28;20657;-77
2022/12/26 15:33:37;;;;;;;0.60;0.60;;;;;;;;;;5074048;28;20701;-76
2022/12/26 15:36:13;;;;;;;0.70;0.70;;;;;;;;;;5074721;28;20206;-78
2022/12/26 15:38:45;;;;;;;0.60;0.60;;;;;;;;;;5073806;28;20642;-77
2022/12/26 15:41:11;;;;;;;0.60;0.60;;;;;;;;;;5073992;28;20175;-77
2022/12/26 15:43:40;;;;;;;0.50;0.50;;;;;;;;;;5073401;28;20213;-77
2022/12/26 15:46:09;;;;;;;0.60;0.60;;;;;;;;;;5073291;28;20187;-77
2022/12/26 15:48:53;;;;;;;0.60;0.60;;;;;;;;;;5074215;28;20665;-76
2022/12/26 15:51:19;;;;;;;0.50;0.50;;;;;;;;;;5059868;28;20271;-76
2022/12/26 15:53:51;;;;;;;0.50;0.50;;;;;;;;;;5073720;28;20625;-77
2022/12/26 15:56:42;;;;;;;0.53;0.53;;;;;;;;;;5073426;28;20210;-76
2022/12/26 15:59:26;;;;;;;0.53;0.53;;;;;;;;;;5074141;28;20607;-77
2022/12/26 16:01:52;;;;;;;0.70;0.70;;;;;;;;;;5073944;28;20186;-76
2022/12/26 16:04:28;;;;;;;0.60;0.60;;;;;;;;;;5069110;28;20197;-76
2022/12/26 16:07:00;;;;;;;0.60;0.60;;;;;;;;;;5074002;28;20178;-76
2022/12/26 16:09:36;;;;;;;0.70;0.70;;;;;;;;;;5073823;28;20179;-77
2022/12/26 16:12:02;;;;;;;0.67;0.67;;;;;;;;;;5073117;28;20174;-76
2022/12/26 16:14:35;;;;;;;0.70;0.70;;;;;;;;;;5073416;28;20573;-76
2022/12/26 16:17:13;;;;;;;0.50;0.50;;;;;;;;;;5073728;28;20273;-76
2022/12/26 16:19:40;;;;;;;0.60;0.60;;;;;;;;;;5073935;28;20182;-76
2022/12/26 16:24:52;;;;;;;0.60;0.60;;;;;;;;;;5073261;28;20586;-77
2022/12/26 16:27:20;;;;;;;0.60;0.60;;;;;;;;;;5073740;28;20198;-76
2022/12/26 16:29:47;;;;;;;0.50;0.50;;;;;;;;;;5073371;28;20191;-77
2022/12/26 16:32:16;;;;;;;0.70;0.70;;;;;;;;;;5072822;28;20198;-77
2022/12/26 16:34:42;;;;;;;0.60;0.60;;;;;;;;;;5072917;28;20231;-77
2022/12/26 16:37:09;;;;;;;0.60;0.60;;;;;;;;;;5073295;28;20237;-77
2022/12/26 16:39:35;;;;;;;0.70;0.70;;;;;;;;;;5073324;28;20220;-76
2022/12/26 16:42:03;;;;;;;0.60;0.60;;;;;;;;;;5072647;28;20218;-76
2022/12/26 16:44:37;;;;;;;0.70;0.70;;;;;;;;;;5072974;28;20264;-76
2022/12/26 16:47:05;;;;;;;0.70;0.70;;;;;;;;;;5073245;28;20202;-76
2022/12/26 16:49:31;;;;;;;0.60;0.60;;;;;;;;;;5068204;28;20182;-76
2022/12/26 16:51:57;;;;;;;0.80;0.80;;;;;;;;;;5068161;28;20271;-76
2022/12/26 16:54:28;;;;;;;0.60;0.60;;;;;;;;;;5072154;28;20210;-76
2022/12/26 16:56:54;;;;;;;0.50;0.50;;;;;;;;;;5059112;28;20265;-76
2022/12/26 16:59:22;;;;;;;0.63;0.63;;;;;;;;;;5072247;28;20715;-75
2022/12/26 17:01:49;;;;;;;0.60;0.60;;;;;;;;;;5071988;28;20344;-74
2022/12/26 17:04:17;;;;;;;0.60;0.60;;;;;;;;;;5071971;28;20281;-75
2022/12/26 17:06:49;;;;;;;0.70;0.70;;;;;;;;;;5060924;28;20234;-76
2022/12/26 17:09:16;;;;;;;0.70;0.70;;;;;;;;;;5077289;28;20225;-77
2022/12/26 17:12:01;;;;;;;0.70;0.70;;;;;;;;;;5084289;28;20273;-75
2022/12/26 17:14:30;;;;;;;0.60;0.60;;;;;;;;;;5095446;28;20178;-76
2022/12/26 17:17:01;;;;;;;0.60;0.60;;;;;;;;;;5089137;28;20194;-73
2022/12/26 17:19:30;;;;;;;0.70;0.70;;;;;;;;;;5088344;28;20205;-74